Time;durP1;ratioP1;P1;durP2;ratioP2;P2;SDS_P1;SDS_P2;PMS_P1;PMS_P2;Temp;Humidity;BMP_temperature;BMP_pressure;BME280_temperature;BME280_humidity;BME280_pressure;Samples;Min_cycle;Max_cycle;Signal;HPM_P1;HPM_P2
2021/06/18 00:01:56;;;;;;;9.13;7.28;;;;;;;20.43;66.84;99647.81;5057700;28;20025;-73
2021/06/18 00:04:21;;;;;;;6.65;5.53;;;;;;;20.40;67.07;99645.78;5061177;28;20388;-73
2021/06/18 00:06:47;;;;;;;8.65;5.35;;;;;;;20.32;67.24;99634.38;5059333;28;20517;-74
2021/06/18 00:09:13;;;;;;;6.45;4.75;;;;;;;20.38;66.80;99631.97;5062378;28;20488;-75
2021/06/18 00:11:38;;;;;;;8.75;5.43;;;;;;;20.38;66.70;99639.66;5066568;28;20021;-73
2021/06/18 00:14:05;;;;;;;9.20;5.88;;;;;;;20.28;66.55;99633.53;5070374;28;20062;-74
2021/06/18 00:16:32;;;;;;;8.80;6.45;;;;;;;20.18;66.97;99634.31;5064134;28;20033;-75
2021/06/18 00:18:57;;;;;;;8.07;6.88;;;;;;;20.04;66.99;99637.84;5070413;28;20056;-75
2021/06/18 00:21:23;;;;;;;12.25;7.22;;;;;;;19.93;67.97;99637.81;5068887;28;20148;-73
2021/06/18 00:23:48;;;;;;;8.90;7.13;;;;;;;19.90;67.98;99638.53;5068897;28;20016;-72
2021/06/18 00:26:14;;;;;;;8.80;7.30;;;;;;;19.91;68.23;99638.16;5062591;28;20079;-72
2021/06/18 00:28:39;;;;;;;11.80;7.50;;;;;;;20.06;67.31;99636.25;5068940;28;20095;-72
2021/06/18 00:31:04;;;;;;;10.57;6.60;;;;;;;19.93;67.86;99623.59;5061851;28;20102;-74
2021/06/18 00:33:30;;;;;;;8.85;5.65;;;;;;;19.95;67.73;99611.84;5059201;28;20083;-74
2021/06/18 00:35:57;;;;;;;8.93;5.93;;;;;;;19.95;67.71;99609.00;5059148;28;20032;-72
2021/06/18 00:38:23;;;;;;;10.98;6.53;;;;;;;19.82;67.54;99612.13;5064072;28;20036;-73
2021/06/18 00:40:48;;;;;;;11.27;7.15;;;;;;;19.68;68.13;99609.19;5063039;28;20107;-72
2021/06/18 00:43:14;;;;;;;21.17;6.15;;;;;;;19.60;68.59;99605.50;5057513;28;20103;-73
2021/06/18 00:45:39;;;;;;;9.68;7.40;;;;;;;19.62;68.36;99603.91;5058009;28;20082;-72
2021/06/18 00:48:06;;;;;;;9.15;6.05;;;;;;;19.51;68.32;99597.34;5054059;28;20023;-73
2021/06/18 00:50:33;;;;;;;12.23;6.72;;;;;;;19.30;68.61;99600.78;5057596;28;20033;-73
2021/06/18 00:52:58;;;;;;;15.13;7.43;;;;;;;19.14;69.14;99596.19;5063954;28;20566;-73
2021/06/18 00:55:25;;;;;;;10.73;8.13;;;;;;;19.03;69.72;99601.78;5061730;28;20120;-73
2021/06/18 00:57:51;;;;;;;11.90;7.07;;;;;;;18.98;69.63;99612.63;5072392;28;20027;-74
2021/06/18 01:00:18;;;;;;;10.85;7.10;;;;;;;19.01;69.79;99614.69;5063431;28;20503;-72
2021/06/18 01:02:43;;;;;;;13.57;7.40;;;;;;;18.95;69.74;99611.38;5061375;28;20025;-73
2021/06/18 01:05:13;;;;;;;9.40;6.88;;;;;;;19.14;69.13;99613.22;5072393;28;20038;-72
2021/06/18 01:07:47;;;;;;;12.60;7.85;;;;;;;19.21;68.92;99604.78;5070762;28;20017;-73
2021/06/18 01:10:22;;;;;;;11.65;7.82;;;;;;;19.15;68.55;99614.03;5066596;28;20067;-74
2021/06/18 01:12:57;;;;;;;12.48;7.50;;;;;;;19.05;69.14;99613.53;5073040;28;20047;-74
2021/06/18 01:15:35;;;;;;;8.13;6.60;;;;;;;19.07;69.59;99611.13;5073692;28;20060;-74
2021/06/18 01:18:05;;;;;;;9.20;7.35;;;;;;;19.12;69.41;99609.13;5073387;28;20209;-73
2021/06/18 01:20:43;;;;;;;10.27;7.72;;;;;;;19.14;69.45;99603.91;5065565;28;20075;-73
2021/06/18 01:23:29;;;;;;;15.35;7.93;;;;;;;19.04;69.56;99611.91;5057826;28;20033;-73
2021/06/18 01:26:35;;;;;;;10.75;7.72;;;;;;;19.03;69.93;99609.44;5058094;28;20106;-73
2021/06/18 01:29:02;;;;;;;9.82;6.78;;;;;;;19.01;70.03;99609.88;5063325;28;20037;-72
2021/06/18 01:31:36;;;;;;;17.52;7.20;;;;;;;19.02;69.65;99599.31;5062477;28;20028;-73
2021/06/18 01:34:18;;;;;;;7.38;6.63;;;;;;;19.00;70.00;99604.56;5068044;28;20048;-74
2021/06/18 01:36:50;;;;;;;10.73;6.35;;;;;;;19.04;69.72;99602.59;5062751;28;20021;-72
2021/06/18 01:39:17;;;;;;;15.43;7.07;;;;;;;19.06;69.42;99591.66;5064022;28;20529;-72
2021/06/18 01:41:45;;;;;;;10.48;6.45;;;;;;;19.16;69.40;99596.63;5064952;28;20490;-73
2021/06/18 01:44:12;;;;;;;11.45;7.25;;;;;;;19.17;69.30;99588.94;5067394;28;20536;-72
2021/06/18 01:46:39;;;;;;;11.85;6.88;;;;;;;19.26;69.52;99597.94;5063059;28;20066;-74
2021/06/18 01:49:11;;;;;;;13.80;6.55;;;;;;;19.32;68.81;99601.25;5067966;28;20029;-73
2021/06/18 01:51:38;;;;;;;11.93;6.18;;;;;;;19.36;68.47;99590.72;5051350;28;20183;-72
2021/06/18 01:54:06;;;;;;;9.27;5.93;;;;;;;19.28;68.44;99589.84;5071287;28;20575;-73
2021/06/18 01:56:35;;;;;;;6.05;4.93;;;;;;;19.39;67.95;99587.09;5062132;28;20112;-72
2021/06/18 01:59:01;;;;;;;4.93;4.50;;;;;;;19.49;67.92;99600.56;5063880;28;20025;-74
2021/06/18 02:01:32;;;;;;;6.22;4.90;;;;;;;19.44;66.86;99600.94;5067823;28;20056;-74
2021/06/18 02:03:58;;;;;;;13.68;5.38;;;;;;;19.31;66.91;99596.78;5065845;28;20115;-72
2021/06/18 02:06:26;;;;;;;6.57;4.90;;;;;;;19.20;67.58;99606.00;5064581;28;20103;-73
2021/06/18 02:08:57;;;;;;;10.48;4.28;;;;;;;19.07;67.30;99599.78;5066322;28;20025;-72
2021/06/18 02:11:27;;;;;;;6.35;4.30;;;;;;;19.12;67.78;99586.44;5068573;28;20025;-73
2021/06/18 02:13:55;;;;;;;8.43;5.00;;;;;;;19.17;67.28;99586.91;5066185;28;20037;-73
2021/06/18 02:16:25;;;;;;;10.50;4.53;;;;;;;19.04;67.29;99582.75;5061326;28;20029;-72
2021/06/18 02:18:54;;;;;;;8.20;5.28;;;;;;;19.03;67.50;99581.13;5054905;28;20049;-74
2021/06/18 02:21:20;;;;;;;6.22;5.03;;;;;;;18.92;67.96;99592.31;5055267;28;20043;-72
2021/06/18 02:23:48;;;;;;;11.05;4.65;;;;;;;18.86;68.29;99593.88;5062879;28;20086;-73
2021/06/18 02:26:15;;;;;;;10.07;4.88;;;;;;;18.55;68.58;99602.44;5070953;28;20036;-73
2021/06/18 02:28:40;;;;;;;9.95;5.55;;;;;;;18.35;69.58;99596.97;5067497;28;20029;-73
2021/06/18 02:31:06;;;;;;;7.93;5.47;;;;;;;18.07;70.39;99600.22;5070456;28;20115;-73
2021/06/18 02:33:32;;;;;;;12.80;6.22;;;;;;;18.05;70.92;99602.63;5058662;28;20037;-73
2021/06/18 02:35:57;;;;;;;10.63;6.32;;;;;;;17.99;70.45;99598.44;5070245;28;20028;-73
2021/06/18 02:38:23;;;;;;;13.43;6.18;;;;;;;17.94;70.25;99594.75;5068448;28;20024;-74
2021/06/18 02:40:49;;;;;;;12.10;6.60;;;;;;;17.76;71.05;99593.69;5066922;28;20036;-72
2021/06/18 02:43:14;;;;;;;15.07;6.82;;;;;;;17.79;71.56;99592.91;5059023;28;20119;-74
2021/06/18 02:45:40;;;;;;;16.05;6.65;;;;;;;17.87;71.46;99591.03;5057645;28;20474;-73
2021/06/18 02:48:12;;;;;;;10.77;7.55;;;;;;;17.93;71.11;99586.66;5070441;28;20571;-73
2021/06/18 02:50:59;;;;;;;12.77;5.75;;;;;;;17.95;71.09;99589.91;5063834;28;20467;-74
2021/06/18 02:53:51;;;;;;;13.73;5.57;;;;;;;17.96;70.83;99597.19;5063415;28;20121;-74
2021/06/18 02:56:16;;;;;;;9.60;5.95;;;;;;;17.96;70.85;99598.03;5053460;28;20589;-72
2021/06/18 02:59:05;;;;;;;9.65;5.75;;;;;;;18.12;70.66;99590.59;5054439;28;20044;-73
2021/06/18 03:01:37;;;;;;;13.00;5.63;;;;;;;18.17;69.43;99598.72;5059378;28;20514;-72
2021/06/18 03:04:04;;;;;;;13.15;6.50;;;;;;;18.16;70.46;99602.75;5068786;28;20577;-72
2021/06/18 03:06:34;;;;;;;15.27;5.50;;;;;;;18.37;69.54;99597.38;5070528;28;20572;-74
2021/06/18 03:09:03;;;;;;;12.90;5.77;;;;;;;18.45;69.30;99603.13;5064438;28;20029;-74
2021/06/18 03:11:35;;;;;;;13.57;5.75;;;;;;;18.34;69.59;99601.00;5069041;28;20459;-74
2021/06/18 03:14:05;;;;;;;10.10;5.97;;;;;;;18.26;69.66;99599.25;5065907;28;20426;-73
2021/06/18 03:16:31;;;;;;;11.18;6.07;;;;;;;18.28;70.36;99596.84;5057981;28;20035;-74
2021/06/18 03:19:01;;;;;;;9.10;5.25;;;;;;;18.45;69.51;99597.44;5062230;28;20056;-73
2021/06/18 03:21:30;;;;;;;14.30;5.47;;;;;;;18.24;68.80;99596.81;5056583;28;20033;-74
2021/06/18 03:23:57;;;;;;;12.85;5.20;;;;;;;17.98;69.16;99599.66;5056117;28;20056;-72
2021/06/18 03:26:23;;;;;;;11.18;5.70;;;;;;;17.90;70.15;99595.91;5057512;28;20032;-74
2021/06/18 03:28:49;;;;;;;11.18;6.47;;;;;;;17.69;69.91;99597.22;5057543;28;20029;-74
2021/06/18 03:31:18;;;;;;;15.38;6.40;;;;;;;17.61;70.38;99596.28;5054949;28;20069;-74
2021/06/18 03:33:44;;;;;;;11.48;5.38;;;;;;;17.69;70.64;99594.38;5069362;28;20463;-72
2021/06/18 03:36:10;;;;;;;18.27;5.57;;;;;;;17.83;70.39;99588.13;5056019;28;20078;-74
2021/06/18 03:38:37;;;;;;;10.13;4.55;;;;;;;17.91;69.49;99595.50;5070248;28;20025;-72
2021/06/18 03:41:03;;;;;;;10.55;6.03;;;;;;;18.02;69.46;99592.03;5050382;28;20029;-72
2021/06/18 03:43:29;;;;;;;9.65;5.70;;;;;;;18.07;69.71;99592.53;5055711;28;20043;-74
2021/06/18 03:46:00;;;;;;;15.07;5.88;;;;;;;18.23;68.94;99588.72;5053393;28;20020;-74
2021/06/18 03:48:28;;;;;;;12.68;5.38;;;;;;;18.37;68.80;99583.22;5055283;28;20408;-72
2021/06/18 03:50:54;;;;;;;8.93;5.60;;;;;;;18.37;68.25;99585.22;5053882;28;20470;-74
2021/06/18 03:53:19;;;;;;;14.05;5.57;;;;;;;18.40;68.07;99589.31;5050677;28;20112;-72
2021/06/18 03:55:47;;;;;;;11.70;5.38;;;;;;;18.35;68.27;99585.63;5055215;28;20068;-76
2021/06/18 03:58:13;;;;;;;12.80;5.75;;;;;;;18.40;67.93;99592.16;5052550;28;20045;-72
2021/06/18 04:00:42;;;;;;;13.70;5.65;;;;;;;18.41;68.91;99593.78;5053152;28;20021;-73
2021/06/18 04:03:09;;;;;;;16.60;5.82;;;;;;;18.51;69.18;99598.75;5052584;28;20041;-72
2021/06/18 04:05:37;;;;;;;29.05;6.93;;;;;;;18.52;68.88;99606.03;5056817;28;20407;-73
2021/06/18 04:08:03;;;;;;;14.55;6.43;;;;;;;18.33;68.89;99604.19;5052148;28;20025;-71
2021/06/18 04:10:30;;;;;;;11.38;6.22;;;;;;;18.22;70.26;99604.03;5051574;28;20045;-71
2021/06/18 04:12:56;;;;;;;7.50;5.70;;;;;;;18.20;71.11;99595.94;5060103;28;20029;-76
2021/06/18 04:15:23;;;;;;;13.90;6.70;;;;;;;18.27;71.17;99600.06;5070232;28;20035;-75
2021/06/18 04:17:52;;;;;;;12.63;6.22;;;;;;;18.37;70.10;99599.38;5065784;28;20059;-73
2021/06/18 04:20:23;;;;;;;10.27;6.65;;;;;;;18.31;70.38;99600.94;5066454;28;20047;-75
2021/06/18 04:22:50;;;;;;;10.05;5.95;;;;;;;18.32;70.46;99600.53;5061988;28;20409;-73
2021/06/18 04:25:16;;;;;;;11.68;5.90;;;;;;;18.31;71.25;99596.06;5065505;28;20133;-74
2021/06/18 04:27:41;;;;;;;15.23;7.15;;;;;;;18.34;70.70;99601.00;5059425;28;20042;-73
2021/06/18 04:30:09;;;;;;;13.05;6.20;;;;;;;18.32;71.29;99594.88;5052383;28;20024;-73
2021/06/18 04:32:35;;;;;;;11.15;6.20;;;;;;;18.36;70.20;99590.09;5059193;28;20029;-74
2021/06/18 04:35:00;;;;;;;7.85;5.15;;;;;;;18.45;69.23;99594.63;5066318;28;20059;-74
2021/06/18 04:37:27;;;;;;;6.95;5.70;;;;;;;18.48;69.30;99603.16;5067617;28;20044;-75
2021/06/18 04:39:54;;;;;;;10.93;6.07;;;;;;;18.54;70.06;99600.00;5061899;28;20490;-75
2021/06/18 04:42:19;;;;;;;6.38;5.75;;;;;;;18.41;69.94;99593.78;5065698;28;20047;-73
2021/06/18 04:44:45;;;;;;;14.57;6.13;;;;;;;18.46;70.70;99602.75;5065847;28;20471;-73
2021/06/18 04:47:10;;;;;;;16.35;6.75;;;;;;;18.52;70.87;99598.38;5052011;28;20040;-73
2021/06/18 04:49:39;;;;;;;10.43;6.82;;;;;;;18.64;70.21;99594.44;5050833;28;20029;-76
2021/06/18 04:52:07;;;;;;;8.93;7.05;;;;;;;18.67;70.07;99602.16;5056437;28;20025;-73
2021/06/18 04:54:33;;;;;;;13.10;6.70;;;;;;;18.74;69.95;99606.31;5061103;28;20082;-75
2021/06/18 04:56:58;;;;;;;14.50;7.15;;;;;;;18.81;69.17;99606.38;5056818;28;20037;-74
2021/06/18 04:59:24;;;;;;;10.45;6.35;;;;;;;18.77;69.32;99605.50;5054830;28;20082;-73
2021/06/18 05:01:50;;;;;;;12.90;7.10;;;;;;;18.82;69.96;99612.84;5069255;28;20032;-76
2021/06/18 05:04:16;;;;;;;15.32;6.88;;;;;;;18.83;70.23;99606.81;5065843;28;20556;-72
2021/06/18 05:06:41;;;;;;;16.35;7.20;;;;;;;18.97;70.33;99608.16;5064016;28;20036;-81
2021/06/18 05:09:07;;;;;;;11.93;6.55;;;;;;;19.10;70.34;99606.69;5063242;28;20034;-72
2021/06/18 05:11:32;;;;;;;16.05;7.05;;;;;;;19.15;70.52;99602.69;5065215;28;20029;-79
2021/06/18 05:13:58;;;;;;;11.70;7.43;;;;;;;19.22;70.58;99602.75;5067798;28;20086;-79
2021/06/18 05:16:25;;;;;;;10.02;7.55;;;;;;;19.26;70.57;99602.78;5056932;28;20112;-74
2021/06/18 05:18:51;;;;;;;9.68;7.15;;;;;;;19.40;70.54;99600.06;5055193;28;20138;-74
2021/06/18 05:21:17;;;;;;;12.57;7.13;;;;;;;19.46;70.05;99601.34;5052669;28;20068;-79
2021/06/18 05:23:43;;;;;;;14.70;7.07;;;;;;;19.58;70.26;99599.41;5057042;28;20025;-74
2021/06/18 05:26:09;;;;;;;11.93;7.35;;;;;;;19.63;70.10;99610.38;5050404;28;20522;-74
2021/06/18 05:28:35;;;;;;;17.02;7.68;;;;;;;19.69;69.78;99605.16;5061726;28;20036;-80
2021/06/18 05:31:01;;;;;;;15.50;7.90;;;;;;;19.73;70.24;99592.63;5063958;28;20029;-74
2021/06/18 05:33:27;;;;;;;12.85;7.07;;;;;;;19.92;70.25;99596.41;5059938;28;20021;-80
2021/06/18 05:35:52;;;;;;;11.07;7.03;;;;;;;19.97;68.86;99596.06;5059206;28;20406;-80
2021/06/18 05:38:18;;;;;;;10.80;7.15;;;;;;;20.06;68.27;99601.38;5053815;28;20040;-80
2021/06/18 05:40:43;;;;;;;10.48;6.35;;;;;;;20.25;68.87;99594.56;5054385;28;20052;-80
2021/06/18 05:43:10;;;;;;;14.23;7.55;;;;;;;20.36;68.95;99603.16;5056661;28;20033;-81
2021/06/18 05:45:37;;;;;;;27.83;15.77;;;;;;;20.58;68.19;99604.03;5054193;28;20029;-80
2021/06/18 05:48:04;;;;;;;12.68;8.27;;;;;;;20.56;65.19;99605.66;5053480;28;20135;-74
2021/06/18 05:50:30;;;;;;;20.27;6.38;;;;;;;20.63;64.83;99605.69;5064980;28;20040;-72
2021/06/18 05:52:55;;;;;;;8.82;6.57;;;;;;;20.73;64.65;99607.75;5061053;28;20029;-73
2021/06/18 05:55:21;;;;;;;10.98;4.90;;;;;;;20.77;62.66;99607.75;5063666;28;20103;-80
2021/06/18 05:57:49;;;;;;;11.27;5.20;;;;;;;20.88;63.18;99602.94;5067965;28;20024;-80
2021/06/18 06:00:15;;;;;;;6.93;4.85;;;;;;;20.89;64.17;99598.06;5062294;28;20036;-81
2021/06/18 06:02:41;;;;;;;9.30;5.70;;;;;;;20.98;62.90;99595.66;5062131;28;20090;-73
2021/06/18 06:05:06;;;;;;;6.75;4.75;;;;;;;21.11;62.21;99596.06;5071369;28;20082;-73
2021/06/18 06:07:32;;;;;;;6.88;5.00;;;;;;;21.27;61.99;99600.56;5059743;28;20039;-73
2021/06/18 06:09:57;;;;;;;5.95;5.15;;;;;;;21.22;62.22;99592.41;5053626;28;20029;-73
2021/06/18 06:12:23;;;;;;;9.85;4.78;;;;;;;21.29;61.18;99598.13;5064005;28;20036;-75
2021/06/18 06:14:49;;;;;;;7.68;5.57;;;;;;;21.34;62.23;99594.84;5072635;28;20036;-72
2021/06/18 06:17:15;;;;;;;6.65;5.72;;;;;;;21.53;62.12;99584.31;5072323;28;20048;-74
2021/06/18 06:19:40;;;;;;;10.88;4.75;;;;;;;21.55;62.31;99582.69;5066237;28;20384;-74
2021/06/18 06:22:06;;;;;;;12.75;7.93;;;;;;;21.61;62.21;99580.25;5072010;28;20516;-73
2021/06/18 06:24:32;;;;;;;7.55;6.03;;;;;;;21.81;60.31;99583.50;5071232;28;20021;-73
2021/06/18 06:26:57;;;;;;;13.60;5.43;;;;;;;21.97;59.86;99582.22;5058909;28;20035;-77
2021/06/18 06:29:22;;;;;;;6.95;5.00;;;;;;;22.07;61.12;99577.72;5055192;28;20025;-73
2021/06/18 06:31:48;;;;;;;10.68;7.03;;;;;;;22.20;61.33;99586.63;5063093;28;20029;-74
2021/06/18 06:34:13;;;;;;;6.97;5.60;;;;;;;22.41;60.20;99572.31;5068002;28;20029;-77
2021/06/18 06:36:39;;;;;;;12.95;5.03;;;;;;;22.61;57.87;99571.81;5066859;28;20568;-73
2021/06/18 06:39:05;;;;;;;10.13;5.78;;;;;;;22.50;59.05;99566.19;5062253;28;20114;-74
2021/06/18 06:41:32;;;;;;;8.63;4.85;;;;;;;22.53;59.35;99571.06;5070014;28;20035;-74
2021/06/18 06:43:57;;;;;;;6.05;5.15;;;;;;;22.64;58.09;99573.88;5059291;28;20029;-77
2021/06/18 06:46:23;;;;;;;9.48;5.10;;;;;;;22.57;59.63;99569.00;5055095;28;20032;-77
2021/06/18 06:48:48;;;;;;;8.13;5.72;;;;;;;22.75;58.06;99568.09;5060853;28;20040;-77
2021/06/18 06:51:15;;;;;;;6.10;5.03;;;;;;;22.80;58.37;99570.47;5064960;28;20071;-73
2021/06/18 06:53:41;;;;;;;7.60;4.70;;;;;;;22.86;58.32;99565.16;5055672;28;20037;-77
2021/06/18 06:56:06;;;;;;;6.45;4.63;;;;;;;22.93;58.40;99565.13;5063411;28;20492;-77
2021/06/18 06:58:32;;;;;;;13.23;4.78;;;;;;;22.98;57.44;99561.03;5061433;28;20035;-77
2021/06/18 07:00:57;;;;;;;6.63;4.50;;;;;;;22.97;58.13;99556.53;5071501;28;20036;-77
2021/06/18 07:03:23;;;;;;;4.30;4.00;;;;;;;23.05;57.81;99552.41;5071287;28;20398;-77
2021/06/18 07:05:48;;;;;;;6.63;4.50;;;;;;;23.31;57.57;99549.38;5060730;28;20080;-76
2021/06/18 07:08:20;;;;;;;11.45;5.47;;;;;;;23.38;58.08;99544.41;5064124;28;20108;-76
2021/06/18 07:10:46;;;;;;;12.27;5.03;;;;;;;23.42;58.44;99542.34;5058751;28;20029;-76
2021/06/18 07:13:12;;;;;;;12.98;4.22;;;;;;;23.43;54.21;99528.88;5066941;28;20024;-76
2021/06/18 07:15:38;;;;;;;9.38;4.03;;;;;;;23.55;54.06;99528.34;5064297;28;20035;-76
2021/06/18 07:18:04;;;;;;;6.35;4.10;;;;;;;23.54;53.93;99523.09;5063847;28;20053;-73
2021/06/18 07:20:31;;;;;;;6.28;3.90;;;;;;;23.68;54.88;99517.22;5064733;28;20033;-75
2021/06/18 07:22:56;;;;;;;8.43;4.55;;;;;;;23.83;55.14;99520.75;5053175;28;20450;-76
2021/06/18 07:25:22;;;;;;;5.82;3.90;;;;;;;23.83;53.54;99528.47;5059801;28;20021;-72
2021/06/18 07:27:47;;;;;;;8.20;5.05;;;;;;;23.99;55.28;99525.03;5060840;28;20035;-78
2021/06/18 07:30:14;;;;;;;8.00;4.45;;;;;;;24.07;54.42;99522.94;5067110;28;20028;-73
2021/06/18 07:32:39;;;;;;;4.53;4.13;;;;;;;24.19;52.89;99527.25;5057959;28;20082;-73
2021/06/18 07:35:05;;;;;;;5.43;3.95;;;;;;;24.23;52.61;99517.41;5059835;28;20388;-72
2021/06/18 07:37:31;;;;;;;5.50;4.22;;;;;;;24.33;52.96;99520.56;5061883;28;20031;-73
2021/06/18 07:39:56;;;;;;;9.25;4.43;;;;;;;24.47;53.29;99508.94;5061648;28;20051;-71
2021/06/18 07:42:22;;;;;;;7.38;4.93;;;;;;;24.58;53.23;99505.13;5059248;28;20520;-73
2021/06/18 07:44:48;;;;;;;9.50;4.38;;;;;;;24.59;50.73;99506.72;5060672;28;20048;-76
2021/06/18 07:47:13;;;;;;;13.60;5.20;;;;;;;24.71;50.93;99503.28;5061794;28;20036;-76
2021/06/18 07:49:39;;;;;;;4.82;3.67;;;;;;;24.70;50.08;99504.53;5057905;28;20025;-76
2021/06/18 07:52:05;;;;;;;7.05;4.15;;;;;;;24.79;50.95;99499.09;5066481;28;20029;-76
2021/06/18 07:54:30;;;;;;;12.90;4.85;;;;;;;24.90;49.23;99507.50;5066793;28;20035;-76
2021/06/18 07:56:55;;;;;;;10.05;4.55;;;;;;;25.03;50.80;99499.13;5064655;28;20028;-76
2021/06/18 07:59:21;;;;;;;4.88;4.03;;;;;;;25.25;50.39;99495.91;5061518;28;20037;-76
2021/06/18 08:01:47;;;;;;;5.10;3.97;;;;;;;25.22;50.98;99494.72;5058815;28;20517;-76
2021/06/18 08:04:12;;;;;;;3.65;3.33;;;;;;;25.11;48.33;99494.09;5052776;28;20493;-74
2021/06/18 08:06:38;;;;;;;6.35;3.60;;;;;;;25.21;47.59;99493.09;5054539;28;20028;-74
2021/06/18 08:09:04;;;;;;;3.95;3.20;;;;;;;25.32;49.38;99495.75;5057631;28;20025;-74
2021/06/18 08:11:30;;;;;;;15.82;3.75;;;;;;;25.23;46.83;99495.53;5052158;28;20529;-74
2021/06/18 08:13:55;;;;;;;4.35;2.88;;;;;;;25.29;44.50;99488.06;5068845;28;20139;-74
2021/06/18 08:16:21;;;;;;;13.30;3.83;;;;;;;25.48;48.11;99494.28;5068770;28;20028;-74
2021/06/18 08:18:46;;;;;;;7.45;3.70;;;;;;;25.42;48.06;99493.16;5070212;28;20079;-74
2021/06/18 08:21:12;;;;;;;3.92;3.53;;;;;;;25.47;47.64;99489.81;5070477;28;20028;-73
2021/06/18 08:23:37;;;;;;;5.80;3.53;;;;;;;25.72;47.29;99486.47;5068155;28;20137;-77
2021/06/18 08:26:03;;;;;;;10.45;3.58;;;;;;;25.82;48.70;99484.63;5070357;28;20024;-77
2021/06/18 08:28:29;;;;;;;3.90;3.47;;;;;;;25.97;46.88;99484.38;5066827;28;20115;-77
2021/06/18 08:30:54;;;;;;;6.50;3.55;;;;;;;26.12;45.04;99485.66;5056700;28;20031;-74
2021/06/18 08:33:20;;;;;;;11.75;4.32;;;;;;;26.33;47.72;99472.16;5068814;28;20032;-74
2021/06/18 08:35:46;;;;;;;7.85;4.22;;;;;;;26.39;46.50;99476.09;5070120;28;20033;-77
2021/06/18 08:38:13;;;;;;;6.82;3.50;;;;;;;26.50;45.43;99475.88;5068741;28;20107;-75
2021/06/18 08:40:38;;;;;;;8.30;3.58;;;;;;;26.45;45.19;99473.50;5068771;28;20031;-74
2021/06/18 08:43:05;;;;;;;4.55;3.03;;;;;;;26.48;43.80;99478.34;5069941;28;20029;-74
2021/06/18 08:45:31;;;;;;;4.20;3.20;;;;;;;26.59;43.80;99478.13;5069975;28;20048;-74
2021/06/18 08:47:57;;;;;;;8.50;3.63;;;;;;;26.59;44.67;99478.91;5068632;28;20043;-78
2021/06/18 08:50:23;;;;;;;3.97;2.95;;;;;;;26.70;42.60;99483.59;5069810;28;20121;-77
2021/06/18 08:52:52;;;;;;;3.50;3.20;;;;;;;26.87;42.25;99472.97;5069843;28;20106;-78
2021/06/18 08:55:20;;;;;;;6.25;3.25;;;;;;;26.99;43.61;99468.59;5068514;28;20047;-74
2021/06/18 08:57:58;;;;;;;12.18;3.50;;;;;;;26.99;42.51;99471.47;5068357;28;20024;-75
2021/06/18 09:00:26;;;;;;;7.35;3.17;;;;;;;26.86;42.78;99463.53;5068456;28;20048;-74
2021/06/18 09:02:52;;;;;;;6.35;3.55;;;;;;;26.83;40.24;99469.34;5068464;28;20040;-74
2021/06/18 09:05:18;;;;;;;3.90;2.80;;;;;;;26.90;40.84;99466.31;5069919;28;20441;-78
2021/06/18 09:07:46;;;;;;;8.63;3.20;;;;;;;26.75;40.36;99463.00;5069596;28;20044;-78
2021/06/18 09:10:42;;;;;;;3.33;2.65;;;;;;;26.82;41.57;99462.81;5073071;28;20036;-78
2021/06/18 09:13:22;;;;;;;3.80;2.60;;;;;;;26.90;42.15;99451.97;5059437;28;20510;-77
2021/06/18 09:15:50;;;;;;;2.97;2.67;;;;;;;26.99;40.51;99459.97;5073672;28;20391;-78
2021/06/18 09:18:39;;;;;;;3.25;2.70;;;;;;;26.91;39.06;99457.28;5073365;28;20131;-74
2021/06/18 09:21:05;;;;;;;7.45;3.72;;;;;;;26.97;41.00;99456.72;5072196;28;20119;-75
2021/06/18 09:23:33;;;;;;;3.40;2.83;;;;;;;26.75;41.59;99451.53;5073201;28;20108;-74
2021/06/18 09:26:20;;;;;;;2.42;2.22;;;;;;;26.56;39.43;99450.34;5073573;28;20036;-78
2021/06/18 09:29:10;;;;;;;11.30;5.85;;;;;;;26.47;38.59;99454.63;5073032;28;20020;-73
2021/06/18 09:31:37;;;;;;;;;;;;;;;26.63;38.37;99456.72;5073758;28;20040;-78
2021/06/18 09:34:04;;;;;;;8.52;6.63;;;;;;;26.72;41.96;99453.22;5073235;28;19913;-78
2021/06/18 09:36:30;;;;;;;8.23;3.88;;;;;;;26.84;41.77;99453.75;5071684;28;20060;-78
2021/06/18 09:38:56;;;;;;;6.80;3.08;;;;;;;26.81;39.13;99443.97;5073452;28;20387;-78
2021/06/18 09:41:42;;;;;;;4.00;3.28;;;;;;;26.98;40.06;99450.56;5071834;28;20038;-79
2021/06/18 09:44:16;;;;;;;7.28;3.15;;;;;;;27.22;36.92;99441.75;5071431;28;20036;-74
2021/06/18 09:46:56;;;;;;;4.40;2.55;;;;;;;27.38;37.88;99438.03;5071563;28;20056;-75
2021/06/18 09:49:30;;;;;;;6.68;3.25;;;;;;;27.47;39.41;99434.50;5072662;28;20028;-74
2021/06/18 09:52:06;;;;;;;4.85;3.10;;;;;;;27.41;39.30;99439.19;5072809;28;20042;-77
2021/06/18 09:54:34;;;;;;;7.55;3.03;;;;;;;27.30;40.55;99431.69;5061847;28;20032;-71
2021/06/18 09:57:20;;;;;;;8.18;3.20;;;;;;;27.36;41.05;99436.88;5068823;28;20040;-72
2021/06/18 09:59:48;;;;;;;10.63;3.35;;;;;;;27.18;41.14;99427.47;5060030;28;20029;-73
2021/06/18 10:02:15;;;;;;;5.20;2.97;;;;;;;27.18;39.28;99429.56;5071306;28;20518;-74
2021/06/18 10:04:41;;;;;;;5.07;2.67;;;;;;;27.08;37.56;99422.03;5072453;28;20032;-74
2021/06/18 10:07:08;;;;;;;2.53;2.33;;;;;;;27.32;38.14;99434.91;5071364;28;20028;-69
2021/06/18 10:09:34;;;;;;;6.65;2.58;;;;;;;27.33;37.24;99427.09;5071072;28;20031;-74
2021/06/18 10:12:00;;;;;;;8.48;3.38;;;;;;;27.31;39.25;99436.16;5072240;28;20490;-73
2021/06/18 10:14:26;;;;;;;12.52;3.97;;;;;;;27.33;38.99;99427.91;5061224;28;20029;-74
2021/06/18 10:16:52;;;;;;;5.88;3.25;;;;;;;27.30;38.32;99431.69;5070199;28;20025;-74
2021/06/18 10:19:17;;;;;;;22.40;3.20;;;;;;;27.21;39.58;99424.94;5071071;28;20032;-75
2021/06/18 10:21:59;;;;;;;3.17;2.88;;;;;;;27.19;40.92;99431.16;5071674;28;20505;-75
2021/06/18 10:24:32;;;;;;;4.53;2.97;;;;;;;27.54;39.65;99424.91;5065042;28;20510;-76
2021/06/18 10:27:00;;;;;;;4.00;2.92;;;;;;;27.49;37.52;99420.50;5058488;28;20032;-77
2021/06/18 10:29:31;;;;;;;3.55;2.78;;;;;;;27.58;37.22;99426.41;5066719;28;20021;-80
2021/06/18 10:31:56;;;;;;;5.28;2.80;;;;;;;27.50;36.48;99419.22;5067871;28;20029;-81
2021/06/18 10:34:37;;;;;;;6.30;2.70;;;;;;;27.58;37.70;99417.00;5072049;28;20036;-74
2021/06/18 10:37:23;;;;;;;4.65;3.00;;;;;;;27.74;38.43;99421.88;5069380;28;20058;-76
2021/06/18 10:40:03;;;;;;;3.38;3.08;;;;;;;27.58;38.99;99417.81;5061109;28;20673;-73
2021/06/18 10:42:28;;;;;;;4.53;2.95;;;;;;;27.38;39.26;99414.25;5069619;28;20025;-73
2021/06/18 10:44:54;;;;;;;6.53;3.03;;;;;;;27.69;40.17;99416.69;5065807;28;20063;-75
2021/06/18 10:47:22;;;;;;;3.88;2.97;;;;;;;27.62;38.25;99423.44;5068612;28;20029;-79
2021/06/18 10:49:51;;;;;;;3.55;2.65;;;;;;;27.41;38.76;99410.50;5070446;28;20032;-74
2021/06/18 10:52:21;;;;;;;5.15;3.88;;;;;;;27.45;38.87;99406.25;5068008;28;20024;-74
2021/06/18 10:54:51;;;;;;;3.08;2.83;;;;;;;27.59;39.31;99395.66;5070275;28;20123;-79
2021/06/18 10:57:16;;;;;;;13.52;3.30;;;;;;;27.44;39.80;99395.22;5070083;28;20028;-77
2021/06/18 10:59:47;;;;;;;3.30;2.70;;;;;;;27.54;40.56;99393.31;5071577;28;20466;-75
2021/06/18 11:02:26;;;;;;;3.70;3.10;;;;;;;27.47;39.63;99395.13;5070093;28;20460;-75
2021/06/18 11:04:56;;;;;;;4.93;3.42;;;;;;;27.44;40.33;99386.59;5058763;28;20036;-76
2021/06/18 11:07:36;;;;;;;4.78;3.65;;;;;;;27.28;40.07;99388.28;5071266;28;20035;-84
2021/06/18 11:10:09;;;;;;;4.10;3.17;;;;;;;27.34;40.82;99388.53;5076200;28;20502;-83
2021/06/18 11:12:38;;;;;;;5.45;2.97;;;;;;;27.36;40.23;99390.94;5062485;28;20036;-82
2021/06/18 11:15:07;;;;;;;3.28;2.97;;;;;;;27.48;40.00;99387.28;5060129;28;20060;-83
2021/06/18 11:17:53;;;;;;;5.43;3.45;;;;;;;27.37;39.69;99381.06;5071088;28;20052;-83
2021/06/18 11:20:18;;;;;;;4.05;3.47;;;;;;;27.50;40.65;99384.78;5069712;28;20025;-84
2021/06/18 11:23:09;;;;;;;4.25;3.22;;;;;;;27.53;41.51;99381.03;5069725;28;20082;-84
2021/06/18 11:25:40;;;;;;;3.42;3.13;;;;;;;27.64;40.35;99379.94;5069735;28;20036;-83
2021/06/18 11:28:21;;;;;;;7.88;3.50;;;;;;;27.75;40.40;99377.50;5069655;28;20044;-83
2021/06/18 11:31:08;;;;;;;3.20;2.70;;;;;;;27.70;39.97;99375.22;5057821;28;20032;-84
2021/06/18 11:33:39;;;;;;;6.28;2.63;;;;;;;27.69;39.09;99371.53;5069642;28;20025;-83
2021/06/18 11:36:30;;;;;;;4.30;2.80;;;;;;;27.55;39.00;99374.81;5069398;28;20032;-84